Naval Air Station Corpus Christi

Airport
ICAO code: 
KNGP
Summary
ICAO Region: 
NAM
Territory: 
Location: 
Corpus Christi, Texas,
Coordinates: 
Aerial View: 
27° 41' 33.151" N, 97° 16' 53.299" W
Metar
Observation
KNGP 020956Z AUTO 00000KT 1/4SM FG VV002 18/18 A3012 RMK AO2 SLP199 T01830178
Station
Corpus Christi, Corpus Christi Naval Air Station/Truax Field
Date/Time
2021-12-02 09:56:00
Wind direction
Wind speed
00 kts
Lowest cloud amount
n/a
Temperature
18.3°C
Dew point
17.8°C
Humidity
96%
Weather condition
fog

Description

Naval Air Station Corpus Christi, also known as Truax Field, is a naval base located 10 km southeast of the central business district of Corpus Christi, in Nueces County, Texas.

Climatology

Humid “subtropical” climate (Köppen climate classification Cfa) - characterized by hot, humid summers and mild winters. Most rainfall occurs during summer and is often associated with thunderstorms and occasional tropical storms (hurricanes).

Runways

Designator Length Width Surface Rops
4/22 1523 61 ASP Yes/Yes
13L/31R 1523 61 ASP Yes/Yes
17/35 1525 61 ASP Yes/Yes
13R/31L 2439 61 PEM Yes/Yes
Airport map: 
Aerial View: 

SKYbrary Partners:

Safety knowledge contributed by: